sensor_id;sensor_type;location;lat;lon;timestamp;P1;durP1;ratioP1;P2;durP2;ratioP2
21299;SDS011;10809;49.476;11.016;2023-09-08T00:01:47;13.57;;;12.88;;
21299;SDS011;10809;49.476;11.016;2023-09-08T00:04:18;15.20;;;14.40;;
21299;SDS011;10809;49.476;11.016;2023-09-08T00:06:49;14.63;;;13.63;;
21299;SDS011;10809;49.476;11.016;2023-09-08T00:09:26;13.00;;;12.30;;
21299;SDS011;10809;49.476;11.016;2023-09-08T00:11:57;12.50;;;11.82;;
21299;SDS011;10809;49.476;11.016;2023-09-08T00:14:27;12.98;;;12.30;;
21299;SDS011;10809;49.476;11.016;2023-09-08T00:16:58;14.45;;;13.45;;
21299;SDS011;10809;49.476;11.016;2023-09-08T00:19:28;12.13;;;11.52;;
21299;SDS011;10809;49.476;11.016;2023-09-08T00:21:59;15.60;;;14.80;;
21299;SDS011;10809;49.476;11.016;2023-09-08T00:24:30;14.32;;;13.43;;
21299;SDS011;10809;49.476;11.016;2023-09-08T00:27:01;13.68;;;13.05;;
21299;SDS011;10809;49.476;11.016;2023-09-08T00:29:32;13.20;;;12.55;;
21299;SDS011;10809;49.476;11.016;2023-09-08T00:32:02;12.30;;;11.63;;
21299;SDS011;10809;49.476;11.016;2023-09-08T00:34:33;12.50;;;11.52;;
21299;SDS011;10809;49.476;11.016;2023-09-08T00:37:03;14.38;;;13.40;;
21299;SDS011;10809;49.476;11.016;2023-09-08T00:39:37;14.15;;;13.30;;
21299;SDS011;10809;49.476;11.016;2023-09-08T00:42:08;11.85;;;11.05;;
21299;SDS011;10809;49.476;11.016;2023-09-08T00:44:38;13.70;;;12.90;;
21299;SDS011;10809;49.476;11.016;2023-09-08T00:47:09;11.18;;;10.57;;
21299;SDS011;10809;49.476;11.016;2023-09-08T00:49:39;12.25;;;11.57;;
21299;SDS011;10809;49.476;11.016;2023-09-08T00:52:10;10.48;;;9.77;;
21299;SDS011;10809;49.476;11.016;2023-09-08T00:54:40;11.25;;;10.63;;
21299;SDS011;10809;49.476;11.016;2023-09-08T00:57:11;13.20;;;12.45;;
21299;SDS011;10809;49.476;11.016;2023-09-08T00:59:41;13.68;;;12.90;;
21299;SDS011;10809;49.476;11.016;2023-09-08T01:02:13;11.63;;;11.00;;
21299;SDS011;10809;49.476;11.016;2023-09-08T01:04:44;11.60;;;10.90;;
21299;SDS011;10809;49.476;11.016;2023-09-08T01:07:15;11.68;;;10.77;;
21299;SDS011;10809;49.476;11.016;2023-09-08T01:09:46;11.55;;;10.85;;
21299;SDS011;10809;49.476;11.016;2023-09-08T01:12:17;10.88;;;10.23;;
21299;SDS011;10809;49.476;11.016;2023-09-08T01:14:49;12.80;;;12.15;;
21299;SDS011;10809;49.476;11.016;2023-09-08T01:17:20;11.43;;;10.70;;
21299;SDS011;10809;49.476;11.016;2023-09-08T01:19:50;13.65;;;12.95;;
21299;SDS011;10809;49.476;11.016;2023-09-08T01:25:23;9.43;;;8.73;;
21299;SDS011;10809;49.476;11.016;2023-09-08T01:27:59;10.60;;;9.90;;
21299;SDS011;10809;49.476;11.016;2023-09-08T01:30:31;10.32;;;9.77;;
21299;SDS011;10809;49.476;11.016;2023-09-08T01:33:04;12.50;;;11.70;;
21299;SDS011;10809;49.476;11.016;2023-09-08T01:35:35;11.07;;;10.43;;
21299;SDS011;10809;49.476;11.016;2023-09-08T01:38:09;11.88;;;11.23;;
21299;SDS011;10809;49.476;11.016;2023-09-08T01:40:39;10.63;;;9.98;;
21299;SDS011;10809;49.476;11.016;2023-09-08T01:43:10;12.05;;;11.35;;
21299;SDS011;10809;49.476;11.016;2023-09-08T01:45:40;11.35;;;10.75;;
21299;SDS011;10809;49.476;11.016;2023-09-08T01:48:11;11.27;;;10.27;;
21299;SDS011;10809;49.476;11.016;2023-09-08T01:50:41;10.95;;;10.02;;
21299;SDS011;10809;49.476;11.016;2023-09-08T01:53:12;12.30;;;11.55;;
21299;SDS011;10809;49.476;11.016;2023-09-08T01:55:42;9.43;;;8.75;;
21299;SDS011;10809;49.476;11.016;2023-09-08T01:58:13;10.50;;;9.82;;
21299;SDS011;10809;49.476;11.016;2023-09-08T02:00:43;9.82;;;9.10;;
21299;SDS011;10809;49.476;11.016;2023-09-08T02:03:18;10.20;;;9.60;;
21299;SDS011;10809;49.476;11.016;2023-09-08T02:05:49;10.35;;;9.80;;
21299;SDS011;10809;49.476;11.016;2023-09-08T02:08:19;9.93;;;9.32;;
21299;SDS011;10809;49.476;11.016;2023-09-08T02:10:50;13.13;;;12.32;;
21299;SDS011;10809;49.476;11.016;2023-09-08T02:13:23;9.63;;;8.93;;
21299;SDS011;10809;49.476;11.016;2023-09-08T02:15:54;9.20;;;8.60;;
21299;SDS011;10809;49.476;11.016;2023-09-08T02:18:25;9.57;;;8.85;;
21299;SDS011;10809;49.476;11.016;2023-09-08T02:20:55;10.55;;;9.80;;
21299;SDS011;10809;49.476;11.016;2023-09-08T02:23:26;10.43;;;9.68;;
21299;SDS011;10809;49.476;11.016;2023-09-08T02:25:57;9.70;;;8.90;;
21299;SDS011;10809;49.476;11.016;2023-09-08T02:28:27;10.10;;;9.40;;
21299;SDS011;10809;49.476;11.016;2023-09-08T02:30:58;9.07;;;8.55;;
21299;SDS011;10809;49.476;11.016;2023-09-08T02:33:29;9.00;;;8.32;;
21299;SDS011;10809;49.476;11.016;2023-09-08T02:36:08;9.95;;;9.43;;
21299;SDS011;10809;49.476;11.016;2023-09-08T02:38:41;8.50;;;7.93;;
21299;SDS011;10809;49.476;11.016;2023-09-08T02:41:12;8.55;;;8.13;;
21299;SDS011;10809;49.476;11.016;2023-09-08T02:43:44;8.48;;;7.95;;
21299;SDS011;10809;49.476;11.016;2023-09-08T02:46:15;8.98;;;8.38;;
21299;SDS011;10809;49.476;11.016;2023-09-08T02:48:46;9.93;;;9.13;;
21299;SDS011;10809;49.476;11.016;2023-09-08T02:51:16;9.18;;;8.57;;
21299;SDS011;10809;49.476;11.016;2023-09-08T02:53:47;8.52;;;7.93;;
21299;SDS011;10809;49.476;11.016;2023-09-08T02:56:17;9.18;;;8.65;;
21299;SDS011;10809;49.476;11.016;2023-09-08T02:58:48;10.18;;;9.43;;
21299;SDS011;10809;49.476;11.016;2023-09-08T03:01:20;8.32;;;7.82;;
21299;SDS011;10809;49.476;11.016;2023-09-08T03:03:50;8.60;;;8.13;;
21299;SDS011;10809;49.476;11.016;2023-09-08T03:06:23;8.68;;;8.07;;
21299;SDS011;10809;49.476;11.016;2023-09-08T03:08:54;7.80;;;7.30;;
21299;SDS011;10809;49.476;11.016;2023-09-08T03:11:27;8.68;;;8.18;;
21299;SDS011;10809;49.476;11.016;2023-09-08T03:13:58;7.72;;;7.18;;
21299;SDS011;10809;49.476;11.016;2023-09-08T03:16:29;8.88;;;8.18;;
21299;SDS011;10809;49.476;11.016;2023-09-08T03:19:00;7.55;;;7.10;;
21299;SDS011;10809;49.476;11.016;2023-09-08T03:21:31;8.02;;;7.53;;
21299;SDS011;10809;49.476;11.016;2023-09-08T03:24:01;8.18;;;7.68;;
21299;SDS011;10809;49.476;11.016;2023-09-08T03:26:34;7.45;;;6.88;;
21299;SDS011;10809;49.476;11.016;2023-09-08T03:29:05;7.95;;;7.35;;
21299;SDS011;10809;49.476;11.016;2023-09-08T03:31:36;7.68;;;7.07;;
21299;SDS011;10809;49.476;11.016;2023-09-08T03:34:06;8.23;;;6.88;;
21299;SDS011;10809;49.476;11.016;2023-09-08T03:36:37;8.02;;;7.53;;
21299;SDS011;10809;49.476;11.016;2023-09-08T03:39:08;6.68;;;6.30;;
21299;SDS011;10809;49.476;11.016;2023-09-08T03:41:39;7.30;;;6.90;;
21299;SDS011;10809;49.476;11.016;2023-09-08T03:44:10;6.90;;;6.30;;
21299;SDS011;10809;49.476;11.016;2023-09-08T03:46:40;5.95;;;5.65;;
21299;SDS011;10809;49.476;11.016;2023-09-08T03:49:11;7.13;;;6.63;;
21299;SDS011;10809;49.476;11.016;2023-09-08T03:51:41;6.05;;;5.65;;
21299;SDS011;10809;49.476;11.016;2023-09-08T03:54:12;7.57;;;6.40;;
21299;SDS011;10809;49.476;11.016;2023-09-08T03:56:42;8.37;;;7.77;;
21299;SDS011;10809;49.476;11.016;2023-09-08T03:59:12;7.78;;;7.28;;
21299;SDS011;10809;49.476;11.016;2023-09-08T04:01:43;7.00;;;6.40;;
21299;SDS011;10809;49.476;11.016;2023-09-08T04:04:13;7.20;;;6.72;;
21299;SDS011;10809;49.476;11.016;2023-09-08T04:06:44;7.03;;;6.63;;
21299;SDS011;10809;49.476;11.016;2023-09-08T04:09:14;6.70;;;6.20;;
21299;SDS011;10809;49.476;11.016;2023-09-08T04:11:48;6.93;;;5.35;;
21299;SDS011;10809;49.476;11.016;2023-09-08T04:14:18;6.93;;;6.30;;
21299;SDS011;10809;49.476;11.016;2023-09-08T04:16:49;6.53;;;6.13;;
21299;SDS011;10809;49.476;11.016;2023-09-08T04:19:19;7.83;;;7.10;;
21299;SDS011;10809;49.476;11.016;2023-09-08T04:21:50;7.50;;;6.77;;
21299;SDS011;10809;49.476;11.016;2023-09-08T04:24:20;6.70;;;6.20;;
21299;SDS011;10809;49.476;11.016;2023-09-08T04:26:51;7.30;;;6.60;;
21299;SDS011;10809;49.476;11.016;2023-09-08T04:29:21;6.67;;;6.07;;
21299;SDS011;10809;49.476;11.016;2023-09-08T04:31:52;7.00;;;6.40;;
21299;SDS011;10809;49.476;11.016;2023-09-08T04:34:22;6.87;;;6.37;;
21299;SDS011;10809;49.476;11.016;2023-09-08T04:36:53;7.13;;;6.63;;
21299;SDS011;10809;49.476;11.016;2023-09-08T04:39:23;6.57;;;5.95;;
21299;SDS011;10809;49.476;11.016;2023-09-08T04:41:54;7.90;;;7.40;;
21299;SDS011;10809;49.476;11.016;2023-09-08T04:44:24;8.30;;;7.70;;
21299;SDS011;10809;49.476;11.016;2023-09-08T04:46:55;6.80;;;6.10;;
21299;SDS011;10809;49.476;11.016;2023-09-08T04:49:29;6.60;;;5.97;;
21299;SDS011;10809;49.476;11.016;2023-09-08T04:51:59;6.13;;;5.63;;
21299;SDS011;10809;49.476;11.016;2023-09-08T04:54:31;6.73;;;6.23;;
21299;SDS011;10809;49.476;11.016;2023-09-08T04:57:02;7.88;;;5.57;;
21299;SDS011;10809;49.476;11.016;2023-09-08T04:59:33;9.10;;;6.47;;
21299;SDS011;10809;49.476;11.016;2023-09-08T05:02:03;7.57;;;5.90;;
21299;SDS011;10809;49.476;11.016;2023-09-08T05:04:34;7.13;;;6.37;;
21299;SDS011;10809;49.476;11.016;2023-09-08T05:07:07;7.27;;;6.57;;
21299;SDS011;10809;49.476;11.016;2023-09-08T05:09:38;6.63;;;6.10;;
21299;SDS011;10809;49.476;11.016;2023-09-08T05:12:08;10.27;;;6.07;;
21299;SDS011;10809;49.476;11.016;2023-09-08T05:14:40;6.77;;;5.27;;
21299;SDS011;10809;49.476;11.016;2023-09-08T05:17:11;8.87;;;5.87;;
21299;SDS011;10809;49.476;11.016;2023-09-08T05:19:42;10.57;;;6.60;;
21299;SDS011;10809;49.476;11.016;2023-09-08T05:22:12;6.27;;;5.87;;
21299;SDS011;10809;49.476;11.016;2023-09-08T05:24:43;5.40;;;5.00;;
21299;SDS011;10809;49.476;11.016;2023-09-08T05:27:16;5.87;;;5.37;;
21299;SDS011;10809;49.476;11.016;2023-09-08T05:29:47;6.00;;;5.50;;
21299;SDS011;10809;49.476;11.016;2023-09-08T05:32:21;8.20;;;7.47;;
21299;SDS011;10809;49.476;11.016;2023-09-08T05:34:52;7.27;;;6.67;;
21299;SDS011;10809;49.476;11.016;2023-09-08T05:37:25;5.73;;;5.30;;
21299;SDS011;10809;49.476;11.016;2023-09-08T05:39:56;6.10;;;5.53;;
21299;SDS011;10809;49.476;11.016;2023-09-08T05:42:30;7.43;;;6.73;;
21299;SDS011;10809;49.476;11.016;2023-09-08T05:45:01;6.07;;;5.57;;
21299;SDS011;10809;49.476;11.016;2023-09-08T05:47:31;6.40;;;5.87;;
21299;SDS011;10809;49.476;11.016;2023-09-08T05:50:02;6.77;;;6.27;;
21299;SDS011;10809;49.476;11.016;2023-09-08T05:52:36;6.83;;;6.43;;
21299;SDS011;10809;49.476;11.016;2023-09-08T05:55:06;7.30;;;6.60;;
21299;SDS011;10809;49.476;11.016;2023-09-08T05:57:52;6.50;;;5.97;;
21299;SDS011;10809;49.476;11.016;2023-09-08T06:00:26;7.83;;;7.13;;
21299;SDS011;10809;49.476;11.016;2023-09-08T06:02:57;7.70;;;7.10;;
21299;SDS011;10809;49.476;11.016;2023-09-08T06:05:33;5.87;;;5.47;;
21299;SDS011;10809;49.476;11.016;2023-09-08T06:08:04;8.23;;;7.10;;
21299;SDS011;10809;49.476;11.016;2023-09-08T06:10:35;7.57;;;6.97;;
21299;SDS011;10809;49.476;11.016;2023-09-08T06:13:06;6.07;;;5.68;;
21299;SDS011;10809;49.476;11.016;2023-09-08T06:15:44;6.82;;;6.30;;
21299;SDS011;10809;49.476;11.016;2023-09-08T06:18:15;6.72;;;6.32;;
21299;SDS011;10809;49.476;11.016;2023-09-08T06:20:46;5.97;;;5.57;;
21299;SDS011;10809;49.476;11.016;2023-09-08T06:23:19;7.38;;;6.95;;
21299;SDS011;10809;49.476;11.016;2023-09-08T06:25:55;6.25;;;5.65;;
21299;SDS011;10809;49.476;11.016;2023-09-08T06:28:30;6.50;;;6.15;;
21299;SDS011;10809;49.476;11.016;2023-09-08T06:31:01;6.70;;;6.30;;
21299;SDS011;10809;49.476;11.016;2023-09-08T06:33:33;5.82;;;5.38;;
21299;SDS011;10809;49.476;11.016;2023-09-08T06:36:04;6.78;;;6.28;;
21299;SDS011;10809;49.476;11.016;2023-09-08T06:38:34;6.00;;;5.63;;
21299;SDS011;10809;49.476;11.016;2023-09-08T06:41:11;6.10;;;5.70;;
21299;SDS011;10809;49.476;11.016;2023-09-08T06:43:44;6.35;;;5.90;;
21299;SDS011;10809;49.476;11.016;2023-09-08T06:46:23;6.10;;;5.72;;
21299;SDS011;10809;49.476;11.016;2023-09-08T06:48:54;7.00;;;6.57;;
21299;SDS011;10809;49.476;11.016;2023-09-08T06:51:27;7.50;;;6.90;;
21299;SDS011;10809;49.476;11.016;2023-09-08T06:53:58;7.90;;;6.43;;
21299;SDS011;10809;49.476;11.016;2023-09-08T06:56:35;7.63;;;7.18;;
21299;SDS011;10809;49.476;11.016;2023-09-08T06:59:06;6.90;;;6.40;;
21299;SDS011;10809;49.476;11.016;2023-09-08T07:01:37;9.00;;;8.40;;
21299;SDS011;10809;49.476;11.016;2023-09-08T07:04:08;9.93;;;9.32;;
21299;SDS011;10809;49.476;11.016;2023-09-08T07:06:39;8.85;;;8.35;;
21299;SDS011;10809;49.476;11.016;2023-09-08T07:09:12;8.93;;;8.38;;
21299;SDS011;10809;49.476;11.016;2023-09-08T07:11:46;10.60;;;10.05;;
21299;SDS011;10809;49.476;11.016;2023-09-08T07:14:16;11.35;;;10.70;;
21299;SDS011;10809;49.476;11.016;2023-09-08T07:16:47;12.15;;;11.50;;
21299;SDS011;10809;49.476;11.016;2023-09-08T07:19:17;12.20;;;11.55;;
21299;SDS011;10809;49.476;11.016;2023-09-08T07:21:48;14.75;;;13.68;;
21299;SDS011;10809;49.476;11.016;2023-09-08T07:24:18;14.48;;;13.55;;
21299;SDS011;10809;49.476;11.016;2023-09-08T07:26:55;15.57;;;14.68;;
21299;SDS011;10809;49.476;11.016;2023-09-08T07:29:27;19.55;;;18.45;;
21299;SDS011;10809;49.476;11.016;2023-09-08T07:31:57;20.23;;;19.13;;
21299;SDS011;10809;49.476;11.016;2023-09-08T07:34:34;20.83;;;19.70;;
21299;SDS011;10809;49.476;11.016;2023-09-08T07:37:05;20.58;;;19.50;;
21299;SDS011;10809;49.476;11.016;2023-09-08T07:39:35;22.30;;;21.13;;
21299;SDS011;10809;49.476;11.016;2023-09-08T07:42:06;24.17;;;22.80;;
21299;SDS011;10809;49.476;11.016;2023-09-08T07:44:41;21.70;;;20.50;;
21299;SDS011;10809;49.476;11.016;2023-09-08T07:47:12;25.75;;;24.42;;
21299;SDS011;10809;49.476;11.016;2023-09-08T07:49:44;19.25;;;18.35;;
21299;SDS011;10809;49.476;11.016;2023-09-08T07:52:15;21.75;;;20.65;;
21299;SDS011;10809;49.476;11.016;2023-09-08T07:54:46;21.52;;;20.45;;
21299;SDS011;10809;49.476;11.016;2023-09-08T07:57:16;21.33;;;20.13;;
21299;SDS011;10809;49.476;11.016;2023-09-08T07:59:46;23.38;;;22.23;;
21299;SDS011;10809;49.476;11.016;2023-09-08T08:02:17;22.88;;;21.67;;
21299;SDS011;10809;49.476;11.016;2023-09-08T08:04:47;22.95;;;21.88;;
21299;SDS011;10809;49.476;11.016;2023-09-08T08:07:18;23.67;;;22.48;;
21299;SDS011;10809;49.476;11.016;2023-09-08T08:09:48;24.45;;;23.05;;
21299;SDS011;10809;49.476;11.016;2023-09-08T08:12:22;29.40;;;28.00;;
21299;SDS011;10809;49.476;11.016;2023-09-08T08:14:52;33.00;;;31.27;;
21299;SDS011;10809;49.476;11.016;2023-09-08T08:17:23;32.50;;;30.50;;
21299;SDS011;10809;49.476;11.016;2023-09-08T08:19:54;35.75;;;33.95;;
21299;SDS011;10809;49.476;11.016;2023-09-08T08:22:24;84.25;;;79.60;;
21299;SDS011;10809;49.476;11.016;2023-09-08T08:24:55;44.15;;;41.83;;
21299;SDS011;10809;49.476;11.016;2023-09-08T08:27:25;54.25;;;51.47;;
21299;SDS011;10809;49.476;11.016;2023-09-08T08:29:59;71.75;;;68.25;;
21299;SDS011;10809;49.476;11.016;2023-09-08T08:32:30;63.90;;;60.55;;
21299;SDS011;10809;49.476;11.016;2023-09-08T08:35:01;97.80;;;92.55;;
21299;SDS011;10809;49.476;11.016;2023-09-08T08:37:31;81.60;;;77.35;;
21299;SDS011;10809;49.476;11.016;2023-09-08T08:40:02;155.60;;;146.55;;
21299;SDS011;10809;49.476;11.016;2023-09-08T08:42:33;107.18;;;101.32;;
21299;SDS011;10809;49.476;11.016;2023-09-08T08:45:04;96.50;;;91.15;;
21299;SDS011;10809;49.476;11.016;2023-09-08T08:47:41;186.05;;;174.90;;
21299;SDS011;10809;49.476;11.016;2023-09-08T08:50:13;186.57;;;175.05;;
21299;SDS011;10809;49.476;11.016;2023-09-08T08:52:44;128.00;;;120.72;;
21299;SDS011;10809;49.476;11.016;2023-09-08T08:55:15;136.68;;;128.75;;
21299;SDS011;10809;49.476;11.016;2023-09-08T08:57:45;130.35;;;123.10;;
21299;SDS011;10809;49.476;11.016;2023-09-08T09:00:16;123.43;;;116.00;;
21299;SDS011;10809;49.476;11.016;2023-09-08T09:02:48;64.85;;;61.28;;
21299;SDS011;10809;49.476;11.016;2023-09-08T09:05:21;59.33;;;56.22;;
21299;SDS011;10809;49.476;11.016;2023-09-08T09:07:52;62.45;;;59.22;;
21299;SDS011;10809;49.476;11.016;2023-09-08T09:10:25;47.25;;;44.80;;
21299;SDS011;10809;49.476;11.016;2023-09-08T09:12:56;43.13;;;41.00;;
21299;SDS011;10809;49.476;11.016;2023-09-08T09:15:29;40.85;;;38.33;;
21299;SDS011;10809;49.476;11.016;2023-09-08T09:18:07;32.75;;;31.17;;
21299;SDS011;10809;49.476;11.016;2023-09-08T09:20:38;30.02;;;27.80;;
21299;SDS011;10809;49.476;11.016;2023-09-08T09:23:10;24.50;;;23.23;;
21299;SDS011;10809;49.476;11.016;2023-09-08T09:25:43;23.05;;;21.90;;
21299;SDS011;10809;49.476;11.016;2023-09-08T09:28:14;23.77;;;22.52;;
21299;SDS011;10809;49.476;11.016;2023-09-08T09:30:46;18.50;;;17.60;;
21299;SDS011;10809;49.476;11.016;2023-09-08T09:33:18;18.45;;;17.58;;
21299;SDS011;10809;49.476;11.016;2023-09-08T09:35:53;20.52;;;19.45;;
21299;SDS011;10809;49.476;11.016;2023-09-08T09:38:25;22.63;;;21.52;;
21299;SDS011;10809;49.476;11.016;2023-09-08T09:40:56;21.23;;;20.02;;
21299;SDS011;10809;49.476;11.016;2023-09-08T09:43:28;17.63;;;16.77;;
21299;SDS011;10809;49.476;11.016;2023-09-08T09:45:59;16.50;;;15.70;;
21299;SDS011;10809;49.476;11.016;2023-09-08T09:48:30;15.85;;;14.90;;
21299;SDS011;10809;49.476;11.016;2023-09-08T09:51:15;15.27;;;14.48;;
21299;SDS011;10809;49.476;11.016;2023-09-08T09:53:52;15.07;;;14.23;;
21299;SDS011;10809;49.476;11.016;2023-09-08T09:56:24;13.32;;;12.60;;
21299;SDS011;10809;49.476;11.016;2023-09-08T09:58:56;13.77;;;13.07;;
21299;SDS011;10809;49.476;11.016;2023-09-08T10:01:27;16.17;;;15.15;;
21299;SDS011;10809;49.476;11.016;2023-09-08T10:03:58;13.68;;;12.75;;
21299;SDS011;10809;49.476;11.016;2023-09-08T10:06:34;13.45;;;12.75;;
21299;SDS011;10809;49.476;11.016;2023-09-08T10:09:05;14.30;;;13.57;;
21299;SDS011;10809;49.476;11.016;2023-09-08T10:11:52;14.10;;;13.38;;
21299;SDS011;10809;49.476;11.016;2023-09-08T10:14:28;15.07;;;14.35;;
21299;SDS011;10809;49.476;11.016;2023-09-08T10:17:00;12.85;;;12.20;;
21299;SDS011;10809;49.476;11.016;2023-09-08T10:19:32;14.73;;;13.95;;
21299;SDS011;10809;49.476;11.016;2023-09-08T10:22:06;12.85;;;12.25;;
21299;SDS011;10809;49.476;11.016;2023-09-08T10:24:46;15.73;;;14.93;;
21299;SDS011;10809;49.476;11.016;2023-09-08T10:27:27;14.75;;;13.95;;
21299;SDS011;10809;49.476;11.016;2023-09-08T10:30:02;12.90;;;12.30;;
21299;SDS011;10809;49.476;11.016;2023-09-08T10:32:35;17.45;;;16.65;;
21299;SDS011;10809;49.476;11.016;2023-09-08T10:35:07;17.00;;;16.08;;
21299;SDS011;10809;49.476;11.016;2023-09-08T10:37:38;13.00;;;12.43;;
21299;SDS011;10809;49.476;11.016;2023-09-08T10:40:23;13.70;;;12.93;;
21299;SDS011;10809;49.476;11.016;2023-09-08T10:43:08;15.70;;;15.00;;
21299;SDS011;10809;49.476;11.016;2023-09-08T10:45:39;12.32;;;11.73;;
21299;SDS011;10809;49.476;11.016;2023-09-08T10:48:11;12.05;;;11.45;;
21299;SDS011;10809;49.476;11.016;2023-09-08T10:50:44;14.60;;;13.60;;
21299;SDS011;10809;49.476;11.016;2023-09-08T10:53:17;12.73;;;11.80;;
21299;SDS011;10809;49.476;11.016;2023-09-08T10:55:58;14.13;;;13.18;;
21299;SDS011;10809;49.476;11.016;2023-09-08T10:58:32;11.27;;;10.70;;
21299;SDS011;10809;49.476;11.016;2023-09-08T11:01:07;13.63;;;12.90;;
21299;SDS011;10809;49.476;11.016;2023-09-08T11:06:08;13.38;;;12.77;;
21299;SDS011;10809;49.476;11.016;2023-09-08T11:08:42;13.68;;;12.98;;
21299;SDS011;10809;49.476;11.016;2023-09-08T11:11:15;12.93;;;12.23;;
21299;SDS011;10809;49.476;11.016;2023-09-08T11:13:46;14.73;;;14.02;;
21299;SDS011;10809;49.476;11.016;2023-09-08T11:16:17;12.98;;;12.10;;
21299;SDS011;10809;49.476;11.016;2023-09-08T11:18:53;13.30;;;12.70;;
21299;SDS011;10809;49.476;11.016;2023-09-08T11:21:23;12.98;;;12.30;;
21299;SDS011;10809;49.476;11.016;2023-09-08T11:23:54;11.77;;;11.18;;
21299;SDS011;10809;49.476;11.016;2023-09-08T11:26:24;14.93;;;14.23;;
21299;SDS011;10809;49.476;11.016;2023-09-08T11:28:55;16.52;;;15.73;;
21299;SDS011;10809;49.476;11.016;2023-09-08T11:31:25;13.40;;;12.65;;
21299;SDS011;10809;49.476;11.016;2023-09-08T11:33:56;14.57;;;13.90;;
21299;SDS011;10809;49.476;11.016;2023-09-08T11:36:26;13.82;;;13.20;;
21299;SDS011;10809;49.476;11.016;2023-09-08T11:38:58;14.63;;;13.93;;
21299;SDS011;10809;49.476;11.016;2023-09-08T11:41:28;13.57;;;12.98;;
21299;SDS011;10809;49.476;11.016;2023-09-08T11:43:59;13.57;;;12.93;;
21299;SDS011;10809;49.476;11.016;2023-09-08T11:46:30;12.75;;;12.15;;
21299;SDS011;10809;49.476;11.016;2023-09-08T11:49:00;13.13;;;12.52;;
21299;SDS011;10809;49.476;11.016;2023-09-08T11:51:31;14.48;;;13.75;;
21299;SDS011;10809;49.476;11.016;2023-09-08T11:54:01;15.48;;;14.65;;
21299;SDS011;10809;49.476;11.016;2023-09-08T11:56:32;16.63;;;15.80;;
21299;SDS011;10809;49.476;11.016;2023-09-08T11:59:02;17.45;;;16.58;;
21299;SDS011;10809;49.476;11.016;2023-09-08T12:01:33;16.27;;;15.40;;
21299;SDS011;10809;49.476;11.016;2023-09-08T12:04:04;13.18;;;12.50;;
21299;SDS011;10809;49.476;11.016;2023-09-08T12:06:34;15.38;;;14.60;;
21299;SDS011;10809;49.476;11.016;2023-09-08T12:09:05;17.10;;;16.23;;
21299;SDS011;10809;49.476;11.016;2023-09-08T12:11:37;15.65;;;14.88;;
21299;SDS011;10809;49.476;11.016;2023-09-08T12:14:14;16.58;;;15.82;;
21299;SDS011;10809;49.476;11.016;2023-09-08T12:16:45;15.00;;;14.32;;
21299;SDS011;10809;49.476;11.016;2023-09-08T12:19:31;13.85;;;13.20;;
21299;SDS011;10809;49.476;11.016;2023-09-08T12:22:02;16.02;;;15.27;;
21299;SDS011;10809;49.476;11.016;2023-09-08T12:24:55;14.32;;;13.63;;
21299;SDS011;10809;49.476;11.016;2023-09-08T12:27:30;15.55;;;14.75;;
21299;SDS011;10809;49.476;11.016;2023-09-08T12:30:06;17.52;;;16.67;;
21299;SDS011;10809;49.476;11.016;2023-09-08T12:32:38;16.13;;;15.30;;
21299;SDS011;10809;49.476;11.016;2023-09-08T12:35:08;15.27;;;14.52;;
21299;SDS011;10809;49.476;11.016;2023-09-08T12:37:39;16.52;;;15.70;;
21299;SDS011;10809;49.476;11.016;2023-09-08T12:40:10;15.95;;;15.18;;
21299;SDS011;10809;49.476;11.016;2023-09-08T12:42:41;17.73;;;16.85;;
21299;SDS011;10809;49.476;11.016;2023-09-08T12:45:11;20.13;;;18.88;;
21299;SDS011;10809;49.476;11.016;2023-09-08T12:47:42;16.10;;;15.27;;
21299;SDS011;10809;49.476;11.016;2023-09-08T12:50:13;15.80;;;15.07;;
21299;SDS011;10809;49.476;11.016;2023-09-08T12:52:44;18.30;;;17.42;;
21299;SDS011;10809;49.476;11.016;2023-09-08T12:55:14;18.17;;;16.85;;
21299;SDS011;10809;49.476;11.016;2023-09-08T12:57:48;16.48;;;15.70;;
21299;SDS011;10809;49.476;11.016;2023-09-08T13:00:20;16.85;;;15.95;;
21299;SDS011;10809;49.476;11.016;2023-09-08T13:02:53;15.98;;;15.25;;
21299;SDS011;10809;49.476;11.016;2023-09-08T13:05:23;16.98;;;16.25;;
21299;SDS011;10809;49.476;11.016;2023-09-08T13:07:54;19.60;;;18.63;;
21299;SDS011;10809;49.476;11.016;2023-09-08T13:10:24;21.23;;;20.05;;
21299;SDS011;10809;49.476;11.016;2023-09-08T13:12:55;17.45;;;16.60;;
21299;SDS011;10809;49.476;11.016;2023-09-08T13:15:25;17.27;;;16.48;;
21299;SDS011;10809;49.476;11.016;2023-09-08T13:17:56;21.27;;;20.27;;
21299;SDS011;10809;49.476;11.016;2023-09-08T13:20:26;20.23;;;19.23;;
21299;SDS011;10809;49.476;11.016;2023-09-08T13:22:57;18.10;;;16.90;;
21299;SDS011;10809;49.476;11.016;2023-09-08T13:25:27;18.70;;;17.77;;
21299;SDS011;10809;49.476;11.016;2023-09-08T13:27:57;19.95;;;18.98;;
21299;SDS011;10809;49.476;11.016;2023-09-08T13:30:28;20.27;;;19.25;;
21299;SDS011;10809;49.476;11.016;2023-09-08T13:32:58;20.33;;;19.38;;
21299;SDS011;10809;49.476;11.016;2023-09-08T13:35:29;20.02;;;19.05;;
21299;SDS011;10809;49.476;11.016;2023-09-08T13:37:59;21.92;;;20.85;;
21299;SDS011;10809;49.476;11.016;2023-09-08T13:40:30;18.67;;;17.75;;
21299;SDS011;10809;49.476;11.016;2023-09-08T13:43:00;19.92;;;18.77;;
21299;SDS011;10809;49.476;11.016;2023-09-08T13:45:31;21.67;;;20.60;;
21299;SDS011;10809;49.476;11.016;2023-09-08T13:48:01;21.73;;;20.70;;
21299;SDS011;10809;49.476;11.016;2023-09-08T13:50:34;20.30;;;19.20;;
21299;SDS011;10809;49.476;11.016;2023-09-08T13:53:04;24.45;;;23.15;;
21299;SDS011;10809;49.476;11.016;2023-09-08T13:55:35;21.92;;;20.77;;
21299;SDS011;10809;49.476;11.016;2023-09-08T13:58:05;21.85;;;20.77;;
21299;SDS011;10809;49.476;11.016;2023-09-08T14:00:36;22.88;;;21.77;;
21299;SDS011;10809;49.476;11.016;2023-09-08T14:03:08;23.17;;;22.05;;
21299;SDS011;10809;49.476;11.016;2023-09-08T14:05:39;24.05;;;22.65;;
21299;SDS011;10809;49.476;11.016;2023-09-08T14:08:10;22.00;;;20.67;;
21299;SDS011;10809;49.476;11.016;2023-09-08T14:10:40;24.10;;;22.95;;
21299;SDS011;10809;49.476;11.016;2023-09-08T14:13:10;23.52;;;22.20;;
21299;SDS011;10809;49.476;11.016;2023-09-08T14:15:41;24.73;;;23.52;;
21299;SDS011;10809;49.476;11.016;2023-09-08T14:18:11;27.60;;;26.08;;
21299;SDS011;10809;49.476;11.016;2023-09-08T14:20:44;24.52;;;23.08;;
21299;SDS011;10809;49.476;11.016;2023-09-08T14:23:14;20.98;;;19.92;;
21299;SDS011;10809;49.476;11.016;2023-09-08T14:25:45;21.38;;;20.20;;
21299;SDS011;10809;49.476;11.016;2023-09-08T14:28:15;26.88;;;25.58;;
21299;SDS011;10809;49.476;11.016;2023-09-08T14:30:46;21.70;;;20.67;;
21299;SDS011;10809;49.476;11.016;2023-09-08T14:33:16;25.52;;;24.33;;
21299;SDS011;10809;49.476;11.016;2023-09-08T14:35:46;28.27;;;26.73;;
21299;SDS011;10809;49.476;11.016;2023-09-08T14:38:24;25.15;;;23.90;;
21299;SDS011;10809;49.476;11.016;2023-09-08T14:43:26;25.48;;;24.20;;
21299;SDS011;10809;49.476;11.016;2023-09-08T14:45:58;24.13;;;22.92;;
21299;SDS011;10809;49.476;11.016;2023-09-08T14:48:28;26.80;;;25.45;;
21299;SDS011;10809;49.476;11.016;2023-09-08T14:51:00;25.58;;;24.35;;